DLH151 EDDP-EDDH
Flight info
| Callsign | DLH151 |
|---|---|
| Flight time | 0h 39m |
| Altitude | 28000 |
| Route | PENEM1N PENEM Y233 EMBOX DCT HLZ Z990 DIRBO DCT DENIX DCT GESTO DCT NOLGO NOLGO6A |
| Aircraft | A320/M-SDE3FGHIRWY/LB1 |
Departure
| Time | 2026-05-06 11:49 |
|---|---|
| Airport | Leipzig/Halle Airport (EDDP) |
Arrival
| Time | 2026-05-06 12:28 |
|---|---|
| Airport | Hamburg Helmut Schmidt Airport (EDDH) |
| Time | Latitude | Longitude | Altitude | Speed | Heading |
|---|---|---|---|---|---|
| 2026-05-06 11:08 | 51.41927 | 12.21958 | 436 ft | 0 kts | 15° |
| 2026-05-06 11:35 | 51.41919 | 12.21955 | 423 ft | 4 kts | 15° |
| 2026-05-06 11:35 | 51.41893 | 12.21944 | 431 ft | 4 kts | 14° |
| 2026-05-06 11:35 | 51.41867 | 12.21933 | 425 ft | 4 kts | 22° |
| 2026-05-06 11:35 | 51.41847 | 12.21913 | 427 ft | 3 kts | 50° |
| 2026-05-06 11:36 | 51.41835 | 12.21878 | 424 ft | 4 kts | 88° |
| 2026-05-06 11:36 | 51.41839 | 12.21836 | 426 ft | 3 kts | 106° |
| 2026-05-06 11:36 | 51.41840 | 12.21829 | 426 ft | 0 kts | 105° |
| 2026-05-06 11:39 | 51.41836 | 12.21854 | 422 ft | 8 kts | 105° |
| 2026-05-06 11:39 | 51.41814 | 12.21986 | 432 ft | 16 kts | 105° |
| 2026-05-06 11:40 | 51.41783 | 12.22167 | 436 ft | 16 kts | 105° |
| 2026-05-06 11:40 | 51.41751 | 12.22348 | 436 ft | 19 kts | 105° |
| 2026-05-06 11:40 | 51.41713 | 12.22565 | 444 ft | 21 kts | 105° |
| 2026-05-06 11:40 | 51.41672 | 12.22810 | 453 ft | 24 kts | 105° |
| 2026-05-06 11:41 | 51.41632 | 12.23046 | 458 ft | 23 kts | 106° |
| 2026-05-06 11:41 | 51.41596 | 12.23295 | 466 ft | 24 kts | 95° |
| 2026-05-06 11:41 | 51.41611 | 12.23557 | 468 ft | 24 kts | 84° |
| 2026-05-06 11:41 | 51.41622 | 12.23809 | 473 ft | 23 kts | 86° |
| 2026-05-06 11:42 | 51.41634 | 12.24063 | 476 ft | 22 kts | 85° |
| 2026-05-06 11:42 | 51.41645 | 12.24305 | 479 ft | 22 kts | 85° |
| 2026-05-06 11:42 | 51.41657 | 12.24562 | 479 ft | 24 kts | 85° |
| 2026-05-06 11:42 | 51.41684 | 12.24775 | 474 ft | 16 kts | 42° |
| 2026-05-06 11:43 | 51.41799 | 12.24827 | 482 ft | 19 kts | 14° |
| 2026-05-06 11:43 | 51.41949 | 12.24888 | 490 ft | 26 kts | 12° |
| 2026-05-06 11:43 | 51.42157 | 12.24959 | 491 ft | 35 kts | 13° |
| 2026-05-06 11:44 | 51.42727 | 12.25183 | 460 ft | 39 kts | 13° |
| 2026-05-06 11:44 | 51.42898 | 12.25249 | 451 ft | 21 kts | 13° |
| 2026-05-06 11:44 | 51.42990 | 12.25389 | 451 ft | 20 kts | 86° |
| 2026-05-06 11:44 | 51.43005 | 12.25618 | 451 ft | 21 kts | 84° |
| 2026-05-06 11:45 | 51.43013 | 12.25860 | 453 ft | 22 kts | 86° |
| 2026-05-06 11:45 | 51.43025 | 12.26110 | 452 ft | 25 kts | 86° |
| 2026-05-06 11:45 | 51.43039 | 12.26416 | 455 ft | 28 kts | 86° |
| 2026-05-06 11:45 | 51.43051 | 12.26670 | 455 ft | 16 kts | 85° |
| 2026-05-06 11:46 | 51.43122 | 12.26752 | 458 ft | 14 kts | 353° |
| 2026-05-06 11:46 | 51.43217 | 12.26739 | 457 ft | 2 kts | 356° |
| 2026-05-06 11:47 | 51.43227 | 12.26737 | 457 ft | 7 kts | 356° |
| 2026-05-06 11:47 | 51.43316 | 12.26688 | 454 ft | 17 kts | 320° |
| 2026-05-06 11:48 | 51.43358 | 12.26553 | 454 ft | 13 kts | 268° |
| 2026-05-06 11:48 | 51.43356 | 12.26512 | 453 ft | 0 kts | 264° |
| 2026-05-06 11:48 | 51.43343 | 12.26217 | 449 ft | 64 kts | 266° |
| 2026-05-06 11:49 | 51.43294 | 12.25153 | 450 ft | 124 kts | 265° |
| 2026-05-06 11:49 | 51.43216 | 12.23503 | 488 ft | 167 kts | 267° |
| 2026-05-06 11:49 | 51.43124 | 12.21652 | 1098 ft | 170 kts | 268° |
| 2026-05-06 11:49 | 51.43254 | 12.19706 | 1570 ft | 189 kts | 292° |
| 2026-05-06 11:50 | 51.44205 | 12.18023 | 1698 ft | 226 kts | 325° |
| 2026-05-06 11:50 | 51.45578 | 12.16629 | 2395 ft | 238 kts | 326° |
| 2026-05-06 11:50 | 51.46964 | 12.15165 | 3331 ft | 240 kts | 324° |
| 2026-05-06 11:50 | 51.48330 | 12.13662 | 4200 ft | 243 kts | 322° |
| 2026-05-06 11:51 | 51.49729 | 12.12105 | 5055 ft | 246 kts | 321° |
| 2026-05-06 11:51 | 51.51147 | 12.10521 | 5901 ft | 250 kts | 321° |
| 2026-05-06 11:51 | 51.52645 | 12.09053 | 6715 ft | 257 kts | 333° |
| 2026-05-06 11:51 | 51.54407 | 12.08280 | 7362 ft | 275 kts | 351° |
| 2026-05-06 11:52 | 51.56380 | 12.08280 | 7934 ft | 289 kts | 359° |
| 2026-05-06 11:52 | 51.58411 | 12.08374 | 8739 ft | 294 kts | 358° |
| 2026-05-06 11:52 | 51.60470 | 12.08463 | 9572 ft | 298 kts | 358° |
| 2026-05-06 11:52 | 51.62575 | 12.08547 | 10165 ft | 311 kts | 358° |
| 2026-05-06 11:53 | 51.64817 | 12.08626 | 10415 ft | 334 kts | 358° |
| 2026-05-06 11:53 | 51.67217 | 12.08660 | 10652 ft | 354 kts | 353° |
| 2026-05-06 11:53 | 51.69650 | 12.07931 | 11198 ft | 358 kts | 339° |
| 2026-05-06 11:53 | 51.71878 | 12.06279 | 11868 ft | 358 kts | 324° |
| 2026-05-06 11:54 | 51.73811 | 12.03768 | 12574 ft | 357 kts | 310° |
| 2026-05-06 11:54 | 51.75500 | 12.00815 | 13269 ft | 360 kts | 309° |
| 2026-05-06 11:54 | 51.77196 | 11.97807 | 13946 ft | 364 kts | 309° |
| 2026-05-06 11:54 | 51.78905 | 11.94763 | 14573 ft | 368 kts | 308° |
| 2026-05-06 11:55 | 51.80633 | 11.91685 | 15217 ft | 372 kts | 308° |
| 2026-05-06 11:55 | 51.82379 | 11.88577 | 15872 ft | 375 kts | 308° |
| 2026-05-06 11:55 | 51.84143 | 11.85441 | 16502 ft | 379 kts | 308° |
| 2026-05-06 11:55 | 51.85790 | 11.82122 | 17083 ft | 379 kts | 301° |
| 2026-05-06 11:56 | 51.87272 | 11.78645 | 17682 ft | 382 kts | 301° |
| 2026-05-06 11:56 | 51.88783 | 11.75094 | 18232 ft | 385 kts | 300° |
| 2026-05-06 11:56 | 51.90307 | 11.71515 | 18741 ft | 388 kts | 301° |
| 2026-05-06 11:56 | 51.91845 | 11.67901 | 19249 ft | 391 kts | 301° |
| 2026-05-06 11:57 | 51.93386 | 11.64264 | 19763 ft | 393 kts | 300° |
| 2026-05-06 11:57 | 51.94938 | 11.60596 | 20248 ft | 396 kts | 300° |
| 2026-05-06 11:57 | 51.96500 | 11.56902 | 20735 ft | 399 kts | 301° |
| 2026-05-06 11:57 | 51.98076 | 11.53178 | 21214 ft | 402 kts | 301° |
| 2026-05-06 11:58 | 51.99662 | 11.49426 | 21685 ft | 405 kts | 301° |
| 2026-05-06 11:58 | 52.01256 | 11.45646 | 22152 ft | 408 kts | 301° |
| 2026-05-06 11:58 | 52.02839 | 11.41882 | 22606 ft | 411 kts | 301° |
| 2026-05-06 11:58 | 52.04456 | 11.38039 | 23073 ft | 414 kts | 301° |
| 2026-05-06 11:59 | 52.06165 | 11.34242 | 23480 ft | 420 kts | 307° |
| 2026-05-06 11:59 | 52.08127 | 11.30698 | 23842 ft | 424 kts | 309° |
| 2026-05-06 11:59 | 52.10115 | 11.27136 | 24209 ft | 426 kts | 309° |
| 2026-05-06 11:59 | 52.12110 | 11.23552 | 24559 ft | 429 kts | 309° |
| 2026-05-06 12:00 | 52.14117 | 11.19931 | 24897 ft | 432 kts | 309° |
| 2026-05-06 12:00 | 52.16137 | 11.16283 | 25232 ft | 435 kts | 309° |
| 2026-05-06 12:00 | 52.18141 | 11.12661 | 25552 ft | 438 kts | 309° |
| 2026-05-06 12:00 | 52.20183 | 11.08962 | 25880 ft | 441 kts | 309° |
| 2026-05-06 12:01 | 52.22237 | 11.05239 | 26212 ft | 444 kts | 309° |
| 2026-05-06 12:01 | 52.24310 | 11.01481 | 26528 ft | 446 kts | 310° |
| 2026-05-06 12:01 | 52.26393 | 10.97699 | 26850 ft | 449 kts | 310° |
| 2026-05-06 12:01 | 52.28489 | 10.93889 | 27143 ft | 452 kts | 310° |
| 2026-05-06 12:02 | 52.30594 | 10.90053 | 27460 ft | 455 kts | 310° |
| 2026-05-06 12:02 | 52.32875 | 10.86445 | 27728 ft | 459 kts | 320° |
| 2026-05-06 12:02 | 52.35548 | 10.83578 | 27809 ft | 460 kts | 333° |
| 2026-05-06 12:02 | 52.38515 | 10.81660 | 27815 ft | 459 kts | 344° |
| 2026-05-06 12:03 | 52.41603 | 10.80644 | 27813 ft | 460 kts | 354° |
| 2026-05-06 12:03 | 52.44830 | 10.80452 | 27816 ft | 469 kts | 4° |
| 2026-05-06 12:03 | 52.48117 | 10.80770 | 27819 ft | 478 kts | 4° |
| 2026-05-06 12:03 | 52.51465 | 10.81104 | 27817 ft | 485 kts | 4° |
| 2026-05-06 12:04 | 52.54846 | 10.81444 | 27817 ft | 488 kts | 4° |
| 2026-05-06 12:04 | 52.58205 | 10.81787 | 27707 ft | 477 kts | 4° |
| 2026-05-06 12:04 | 52.61473 | 10.82126 | 27310 ft | 465 kts | 4° |
| 2026-05-06 12:04 | 52.64680 | 10.82463 | 26910 ft | 460 kts | 4° |
| 2026-05-06 12:05 | 52.67865 | 10.82797 | 26519 ft | 458 kts | 4° |
| 2026-05-06 12:05 | 52.71039 | 10.83129 | 26136 ft | 456 kts | 4° |
| 2026-05-06 12:05 | 52.74158 | 10.83454 | 25649 ft | 454 kts | 4° |
| 2026-05-06 12:05 | 52.77299 | 10.83701 | 25164 ft | 450 kts | 359° |
| 2026-05-06 12:06 | 52.80403 | 10.83240 | 24671 ft | 446 kts | 349° |
| 2026-05-06 12:06 | 52.83388 | 10.81967 | 24196 ft | 442 kts | 339° |
| 2026-05-06 12:06 | 52.86189 | 10.79945 | 23708 ft | 437 kts | 330° |
| 2026-05-06 12:06 | 52.88740 | 10.77260 | 23085 ft | 432 kts | 321° |
| 2026-05-06 12:07 | 52.91096 | 10.74204 | 22400 ft | 429 kts | 320° |
| 2026-05-06 12:07 | 52.93441 | 10.71150 | 21728 ft | 427 kts | 320° |
| 2026-05-06 12:07 | 52.95766 | 10.68122 | 21078 ft | 424 kts | 320° |
| 2026-05-06 12:07 | 52.98074 | 10.65110 | 20422 ft | 421 kts | 320° |
| 2026-05-06 12:08 | 53.00364 | 10.62122 | 19813 ft | 417 kts | 320° |
| 2026-05-06 12:08 | 53.02641 | 10.59147 | 19201 ft | 415 kts | 319° |
| 2026-05-06 12:08 | 53.04895 | 10.56194 | 18601 ft | 412 kts | 319° |
| 2026-05-06 12:08 | 53.07110 | 10.53287 | 18006 ft | 410 kts | 319° |
| 2026-05-06 12:09 | 53.09315 | 10.50312 | 17331 ft | 406 kts | 315° |
| 2026-05-06 12:09 | 53.11207 | 10.46869 | 16675 ft | 401 kts | 304° |
| 2026-05-06 12:09 | 53.12677 | 10.42955 | 16028 ft | 397 kts | 294° |
| 2026-05-06 12:09 | 53.13691 | 10.38719 | 15392 ft | 393 kts | 284° |
| 2026-05-06 12:10 | 53.14295 | 10.34307 | 14772 ft | 390 kts | 279° |
| 2026-05-06 12:10 | 53.14841 | 10.29885 | 14167 ft | 389 kts | 279° |
| 2026-05-06 12:10 | 53.15378 | 10.25541 | 13570 ft | 388 kts | 279° |
| 2026-05-06 12:10 | 53.15919 | 10.21153 | 12902 ft | 386 kts | 280° |
| 2026-05-06 12:11 | 53.16569 | 10.16821 | 12227 ft | 386 kts | 290° |
| 2026-05-06 12:11 | 53.17944 | 10.13195 | 11612 ft | 381 kts | 314° |
| 2026-05-06 12:11 | 53.20047 | 10.10725 | 11041 ft | 362 kts | 338° |
| 2026-05-06 12:11 | 53.22390 | 10.09823 | 10845 ft | 332 kts | 360° |
| 2026-05-06 12:12 | 53.24584 | 10.10127 | 10837 ft | 305 kts | 10° |
| 2026-05-06 12:12 | 53.26661 | 10.10623 | 10847 ft | 299 kts | 10° |
| 2026-05-06 12:12 | 53.28712 | 10.11119 | 10851 ft | 297 kts | 10° |
| 2026-05-06 12:12 | 53.30749 | 10.11620 | 10854 ft | 296 kts | 10° |
| 2026-05-06 12:13 | 53.32780 | 10.12120 | 10856 ft | 295 kts | 11° |
| 2026-05-06 12:13 | 53.34811 | 10.12622 | 10856 ft | 295 kts | 10° |
| 2026-05-06 12:13 | 53.36822 | 10.12827 | 10701 ft | 299 kts | 359° |
| 2026-05-06 12:13 | 53.38872 | 10.12217 | 10338 ft | 300 kts | 343° |
| 2026-05-06 12:14 | 53.40781 | 10.10805 | 9968 ft | 301 kts | 330° |
| 2026-05-06 12:14 | 53.42454 | 10.08681 | 9595 ft | 303 kts | 317° |
| 2026-05-06 12:14 | 53.43879 | 10.06086 | 9187 ft | 301 kts | 313° |
| 2026-05-06 12:14 | 53.45256 | 10.03524 | 8772 ft | 293 kts | 314° |
| 2026-05-06 12:15 | 53.46617 | 10.00996 | 8272 ft | 289 kts | 314° |
| 2026-05-06 12:15 | 53.47928 | 9.98504 | 7757 ft | 282 kts | 308° |
| 2026-05-06 12:15 | 53.48727 | 9.95562 | 7247 ft | 277 kts | 280° |
| 2026-05-06 12:15 | 53.48613 | 9.92427 | 6995 ft | 261 kts | 250° |
| 2026-05-06 12:16 | 53.47762 | 9.89852 | 7066 ft | 253 kts | 229° |
| 2026-05-06 12:16 | 53.46650 | 9.87590 | 7075 ft | 255 kts | 228° |
| 2026-05-06 12:16 | 53.45493 | 9.85271 | 6617 ft | 263 kts | 228° |
| 2026-05-06 12:16 | 53.44303 | 9.82900 | 6121 ft | 268 kts | 228° |
| 2026-05-06 12:17 | 53.43094 | 9.80493 | 5585 ft | 268 kts | 228° |
| 2026-05-06 12:17 | 53.41906 | 9.78118 | 5109 ft | 263 kts | 228° |
| 2026-05-06 12:17 | 53.40769 | 9.75834 | 5008 ft | 250 kts | 228° |
| 2026-05-06 12:17 | 53.39656 | 9.73598 | 5006 ft | 249 kts | 228° |
| 2026-05-06 12:18 | 53.38550 | 9.71381 | 4999 ft | 245 kts | 228° |
| 2026-05-06 12:18 | 53.37463 | 9.69204 | 4997 ft | 242 kts | 228° |
| 2026-05-06 12:18 | 53.36370 | 9.67019 | 5006 ft | 247 kts | 228° |
| 2026-05-06 12:18 | 53.35259 | 9.64808 | 5000 ft | 248 kts | 228° |
| 2026-05-06 12:19 | 53.34179 | 9.62599 | 4999 ft | 249 kts | 235° |
| 2026-05-06 12:19 | 53.33597 | 9.59898 | 5003 ft | 250 kts | 267° |
| 2026-05-06 12:19 | 53.33912 | 9.57094 | 5004 ft | 246 kts | 300° |
| 2026-05-06 12:19 | 53.34941 | 9.54852 | 5002 ft | 242 kts | 322° |
| 2026-05-06 12:20 | 53.36311 | 9.53434 | 4996 ft | 223 kts | 343° |
| 2026-05-06 12:20 | 53.37780 | 9.52899 | 4998 ft | 213 kts | 2° |
| 2026-05-06 12:20 | 53.39226 | 9.53166 | 5006 ft | 208 kts | 20° |
| 2026-05-06 12:20 | 53.40528 | 9.54164 | 5008 ft | 205 kts | 38° |
| 2026-05-06 12:21 | 53.41559 | 9.55764 | 5002 ft | 202 kts | 52° |
| 2026-05-06 12:21 | 53.42463 | 9.57565 | 5005 ft | 202 kts | 52° |
| 2026-05-06 12:21 | 53.43370 | 9.59371 | 5003 ft | 202 kts | 52° |
| 2026-05-06 12:21 | 53.44264 | 9.61149 | 5009 ft | 202 kts | 52° |
| 2026-05-06 12:22 | 53.45170 | 9.62954 | 5005 ft | 202 kts | 52° |
| 2026-05-06 12:22 | 53.46075 | 9.64759 | 4927 ft | 202 kts | 52° |
| 2026-05-06 12:22 | 53.46983 | 9.66570 | 4713 ft | 203 kts | 52° |
| 2026-05-06 12:22 | 53.47895 | 9.68390 | 4433 ft | 203 kts | 52° |
| 2026-05-06 12:23 | 53.48789 | 9.70177 | 4158 ft | 197 kts | 52° |
| 2026-05-06 12:23 | 53.49664 | 9.71926 | 3904 ft | 193 kts | 52° |
| 2026-05-06 12:23 | 53.50510 | 9.73618 | 3652 ft | 184 kts | 53° |
| 2026-05-06 12:23 | 53.51289 | 9.75176 | 3397 ft | 165 kts | 52° |
| 2026-05-06 12:24 | 53.52005 | 9.76611 | 3175 ft | 158 kts | 52° |
| 2026-05-06 12:24 | 53.52695 | 9.77996 | 2964 ft | 156 kts | 52° |
| 2026-05-06 12:24 | 53.53392 | 9.79395 | 2761 ft | 156 kts | 52° |
| 2026-05-06 12:24 | 53.54086 | 9.80786 | 2547 ft | 155 kts | 52° |
| 2026-05-06 12:25 | 53.54717 | 9.82053 | 2353 ft | 147 kts | 51° |
| 2026-05-06 12:25 | 53.55371 | 9.83286 | 2141 ft | 141 kts | 48° |
| 2026-05-06 12:25 | 53.56008 | 9.84476 | 2075 ft | 135 kts | 56° |
| 2026-05-06 12:25 | 53.56459 | 9.85886 | 1798 ft | 136 kts | 57° |
| 2026-05-06 12:26 | 53.57004 | 9.87166 | 1588 ft | 137 kts | 45° |
| 2026-05-06 12:26 | 53.57742 | 9.88139 | 1420 ft | 132 kts | 44° |
| 2026-05-06 12:26 | 53.58342 | 9.89297 | 1391 ft | 135 kts | 50° |
| 2026-05-06 12:26 | 53.58924 | 9.90524 | 1128 ft | 133 kts | 52° |
| 2026-05-06 12:27 | 53.59519 | 9.91720 | 837 ft | 132 kts | 51° |
| 2026-05-06 12:27 | 53.60106 | 9.92910 | 608 ft | 134 kts | 50° |
| 2026-05-06 12:27 | 53.60701 | 9.94092 | 464 ft | 132 kts | 49° |
| 2026-05-06 12:27 | 53.61293 | 9.95287 | 266 ft | 134 kts | 52° |
| 2026-05-06 12:28 | 53.61901 | 9.96523 | 105 ft | 139 kts | 51° |
| 2026-05-06 12:28 | 53.62495 | 9.97719 | 43 ft | 121 kts | 51° |
| 2026-05-06 12:28 | 53.62936 | 9.98619 | 45 ft | 79 kts | 49° |
| 2026-05-06 12:28 | 53.63065 | 9.98879 | 46 ft | 29 kts | 63° |
| 2026-05-06 12:29 | 53.63090 | 9.99176 | 47 ft | 10 kts | 96° |
| 2026-05-06 12:29 | 53.63087 | 9.99221 | 47 ft | 0 kts | 95° |
| 2026-05-06 12:31 | 53.63087 | 9.99222 | 47 ft | 1 kts | 95° |
| 2026-05-06 12:31 | 53.63087 | 9.99234 | 47 ft | 4 kts | 95° |
| 2026-05-06 12:32 | 53.63084 | 9.99290 | 47 ft | 10 kts | 95° |
| 2026-05-06 12:32 | 53.63112 | 9.99435 | 46 ft | 15 kts | 56° |
| 2026-05-06 12:32 | 53.63175 | 9.99578 | 46 ft | 15 kts | 50° |
| 2026-05-06 12:32 | 53.63243 | 9.99708 | 48 ft | 15 kts | 45° |
| 2026-05-06 12:33 | 53.63315 | 9.99835 | 48 ft | 15 kts | 50° |
| 2026-05-06 12:33 | 53.63383 | 9.99973 | 48 ft | 12 kts | 49° |
| 2026-05-06 12:33 | 53.63429 | 10.00069 | 48 ft | 7 kts | 61° |
| 2026-05-06 12:33 | 53.63431 | 10.00125 | 48 ft | 7 kts | 108° |
| 2026-05-06 12:34 | 53.63391 | 10.00158 | 48 ft | 6 kts | 176° |
| 2026-05-06 12:34 | 53.63365 | 10.00162 | 48 ft | 7 kts | 175° |
| 2026-05-06 12:34 | 53.63289 | 10.00171 | 48 ft | 9 kts | 175° |
| 2026-05-06 12:34 | 53.63231 | 10.00178 | 47 ft | 7 kts | 176° |
| 2026-05-06 12:35 | 53.63177 | 10.00184 | 48 ft | 8 kts | 176° |
| 2026-05-06 12:35 | 53.63125 | 10.00189 | 48 ft | 7 kts | 176° |
| 2026-05-06 12:35 | 53.63104 | 10.00231 | 48 ft | 5 kts | 93° |
| 2026-05-06 12:35 | 53.63110 | 10.00316 | 48 ft | 9 kts | 87° |
| 2026-05-06 12:36 | 53.63112 | 10.00367 | 48 ft | 2 kts | 86° |
| 2026-05-06 12:36 | 53.63112 | 10.00380 | 46 ft | 0 kts | 87° |